createdAt,value
2022-12-10T00:09:03.155Z,1.10
2022-12-10T00:19:05.342Z,1.10
2022-12-10T00:29:08.764Z,1.15
2022-12-10T00:39:12.209Z,1.10
2022-12-10T00:49:14.329Z,1.05
2022-12-10T00:59:15.823Z,1.10
2022-12-10T01:09:20.633Z,1.30
2022-12-10T01:19:22.245Z,1.20
2022-12-10T01:29:23.982Z,1.10
2022-12-10T01:39:26.055Z,1.13
2022-12-10T01:49:39.506Z,1.25
2022-12-10T01:59:41.611Z,1.55
2022-12-10T02:09:54.819Z,1.23
2022-12-10T02:20:02.779Z,1.20
2022-12-10T02:30:04.886Z,1.33
2022-12-10T02:40:12.394Z,1.10
2022-12-10T02:50:19.756Z,1.10
2022-12-10T03:00:25.384Z,1.50
2022-12-10T03:10:50.145Z,1.20
2022-12-10T03:20:53.977Z,1.25
2022-12-10T03:30:56.431Z,1.33
2022-12-10T03:40:57.963Z,1.33
2022-12-10T03:51:00.483Z,1.45
2022-12-10T04:01:02.107Z,1.40
2022-12-10T04:11:08.677Z,1.30
2022-12-10T04:21:28.807Z,1.10
2022-12-10T04:31:30.310Z,1.52
2022-12-10T04:41:31.895Z,1.30
2022-12-10T04:51:33.605Z,1.40
2022-12-10T05:01:35.360Z,1.35
2022-12-10T05:11:36.920Z,1.50
2022-12-10T05:21:57.092Z,1.40
2022-12-10T05:31:58.565Z,1.58
2022-12-10T05:41:59.996Z,1.30
2022-12-10T05:52:01.501Z,1.60
2022-12-10T06:02:02.929Z,1.55
2022-12-10T06:12:04.698Z,1.65
2022-12-10T06:22:06.255Z,1.80
2022-12-10T06:32:08.186Z,1.70
2022-12-10T06:42:09.655Z,1.65
2022-12-10T06:52:11.441Z,1.70
2022-12-10T07:02:13.656Z,1.90
2022-12-10T07:12:15.829Z,1.60
2022-12-10T07:22:17.512Z,1.42
2022-12-10T07:32:18.966Z,2.00
2022-12-10T07:42:20.453Z,1.80
2022-12-10T07:52:21.869Z,2.08
2022-12-10T08:02:23.294Z,2.45
2022-12-10T08:12:24.815Z,2.55
2022-12-10T08:22:26.350Z,2.60
2022-12-10T08:32:29.010Z,2.30
2022-12-10T08:42:30.496Z,2.58
2022-12-10T08:52:31.931Z,2.58
2022-12-10T09:02:33.417Z,2.40
2022-12-10T09:12:35.115Z,2.25
2022-12-10T09:22:37.746Z,2.40
2022-12-10T09:32:39.259Z,2.35
2022-12-10T09:43:25.888Z,2.10
2022-12-10T09:53:29.157Z,3.28
2022-12-10T10:03:39.378Z,2.80
2022-12-10T10:13:43.393Z,3.22
2022-12-10T10:23:45.925Z,2.78
2022-12-10T10:33:57.405Z,2.95
2022-12-10T10:44:02.913Z,2.60
2022-12-10T10:54:08.296Z,2.85
2022-12-10T11:04:10.197Z,2.63
2022-12-10T11:14:25.345Z,2.70
2022-12-10T11:24:28.116Z,2.60
2022-12-10T11:34:54.582Z,3.20
2022-12-10T11:45:40.790Z,2.92
2022-12-10T11:55:55.081Z,2.92
2022-12-10T12:06:07.844Z,3.05
2022-12-10T12:16:16.850Z,3.70
2022-12-10T12:26:27.405Z,3.10
2022-12-10T12:36:31.633Z,2.85
2022-12-10T12:46:44.332Z,3.20
2022-12-10T12:56:56.785Z,3.40
2022-12-10T13:07:16.485Z,3.10
2022-12-10T13:17:37.710Z,3.33
2022-12-10T13:27:39.729Z,3.10
2022-12-10T13:38:05.620Z,3.22
2022-12-10T13:48:29.239Z,3.53
2022-12-10T13:58:56.628Z,3.22
2022-12-10T14:09:05.350Z,2.97
2022-12-10T14:19:08.981Z,3.15
2022-12-10T14:29:25.694Z,3.60
2022-12-10T14:39:34.227Z,2.90
2022-12-10T14:49:43.074Z,3.75
2022-12-10T14:59:52.082Z,4.30
2022-12-10T15:09:54.463Z,3.83
2022-12-10T15:19:55.902Z,3.83
2022-12-10T15:29:57.345Z,3.40
2022-12-10T15:40:01.188Z,3.50
2022-12-10T15:50:02.757Z,3.53
2022-12-10T16:00:08.043Z,3.80
2022-12-10T16:10:18.475Z,3.97
2022-12-10T16:20:29.047Z,3.47
2022-12-10T16:30:56.842Z,3.92
2022-12-10T16:40:58.855Z,4.15
2022-12-10T16:51:06.510Z,3.58
2022-12-10T17:01:25.148Z,3.65
2022-12-10T17:11:48.924Z,3.33
2022-12-10T17:21:51.205Z,3.50
2022-12-10T17:31:52.920Z,3.50
2022-12-10T17:41:54.359Z,3.80
2022-12-10T17:51:59.945Z,3.97
2022-12-10T18:02:01.394Z,3.80
2022-12-10T18:12:02.898Z,4.20
2022-12-10T18:22:04.395Z,4.10
2022-12-10T18:32:06.009Z,3.72
2022-12-10T18:42:08.652Z,3.85
2022-12-10T18:52:10.081Z,3.88
2022-12-10T19:02:11.887Z,3.67
2022-12-10T19:12:13.357Z,3.60
2022-12-10T19:22:14.781Z,3.75
2022-12-10T19:32:16.517Z,3.70
2022-12-10T19:42:17.953Z,3.55
2022-12-10T19:52:19.413Z,3.40
2022-12-10T20:02:20.854Z,3.17
2022-12-10T20:12:22.379Z,3.80
2022-12-10T20:22:23.870Z,3.60
2022-12-10T20:32:25.257Z,3.15
2022-12-10T20:42:26.704Z,3.60
2022-12-10T20:52:28.193Z,3.33
2022-12-10T21:02:29.739Z,3.03
2022-12-10T21:12:31.266Z,3.00
2022-12-10T21:22:33.110Z,3.50
2022-12-10T21:32:34.555Z,3.05
2022-12-10T21:42:54.792Z,2.92
2022-12-10T21:52:56.372Z,3.00
2022-12-10T22:02:58.177Z,2.95
2022-12-10T22:12:59.783Z,3.10
2022-12-10T22:23:01.300Z,2.80
2022-12-10T22:33:03.529Z,2.75
2022-12-10T22:43:26.541Z,3.03
2022-12-10T22:53:26.383Z,2.72
2022-12-10T23:03:28.945Z,2.92
2022-12-10T23:13:36.284Z,2.42
2022-12-10T23:23:39.441Z,2.75
2022-12-10T23:33:40.943Z,2.78
2022-12-10T23:43:42.517Z,2.35
2022-12-10T23:53:44.012Z,2.95
